FWCL

Chileka International Airport

Blantyre, Malawi
METAR FWCL 181600Z 06005KT 8000 NSC 30/06 Q1017 NOSIG
Observed Flight Rules
Sep-18 @ 16:00 UTC (14 hours ago) Marginal Visual Flight Rules
Wind Visibility Clouds
60° at 5 knots 7,998 meters
  • Clear skies
Temperatures Readings
Current 30°C / 86°F
Dewpoint 6°C / 43°F
Humidity 22%
Altimeter 30.03" Hg
Pressure 1017 hPa
Elevation 767
METAR FWCL 181600Z 06005KT 8000 NSC 30/06 Q1017 NOSIG
Observed Flight Rules
Sep-18 @ 16:00 UTC
(14 hours ago)
MVFR
Wind Visibility
60° at 5 knots 7,998 meters
Clouds
  • Clear skies
Temperature Dewpoint
30°C / 86°F 6°C / 43°F
Humidity Altimeter Pressure
22% 30.03" Hg 1017 hPa